sensor_id;sensor_type;location;lat;lon;timestamp;P1;durP1;ratioP1;P2;durP2;ratioP2
75427;SDS011;64008;55.612;37.698;2022-12-31T00:01:16;20.70;;;7.32;;
75427;SDS011;64008;55.612;37.698;2022-12-31T00:03:43;21.23;;;7.55;;
75427;SDS011;64008;55.612;37.698;2022-12-31T00:06:13;21.85;;;7.93;;
75427;SDS011;64008;55.612;37.698;2022-12-31T00:08:40;21.92;;;8.43;;
75427;SDS011;64008;55.612;37.698;2022-12-31T00:11:07;20.08;;;6.78;;
75427;SDS011;64008;55.612;37.698;2022-12-31T00:13:33;20.35;;;8.27;;
75427;SDS011;64008;55.612;37.698;2022-12-31T00:16:05;18.45;;;7.13;;
75427;SDS011;64008;55.612;37.698;2022-12-31T00:18:33;19.55;;;6.15;;
75427;SDS011;64008;55.612;37.698;2022-12-31T00:20:58;17.92;;;6.78;;
75427;SDS011;64008;55.612;37.698;2022-12-31T00:23:26;17.35;;;6.35;;
75427;SDS011;64008;55.612;37.698;2022-12-31T00:25:51;15.98;;;6.13;;
75427;SDS011;64008;55.612;37.698;2022-12-31T00:28:17;17.55;;;6.30;;
75427;SDS011;64008;55.612;37.698;2022-12-31T00:30:42;22.58;;;7.22;;
75427;SDS011;64008;55.612;37.698;2022-12-31T00:33:08;19.50;;;7.95;;
75427;SDS011;64008;55.612;37.698;2022-12-31T00:35:33;20.95;;;7.35;;
75427;SDS011;64008;55.612;37.698;2022-12-31T00:38:00;17.45;;;6.75;;
75427;SDS011;64008;55.612;37.698;2022-12-31T00:40:27;18.10;;;6.90;;
75427;SDS011;64008;55.612;37.698;2022-12-31T00:42:53;14.68;;;4.75;;
75427;SDS011;64008;55.612;37.698;2022-12-31T00:45:18;19.92;;;6.85;;
75427;SDS011;64008;55.612;37.698;2022-12-31T00:47:44;16.58;;;6.70;;
75427;SDS011;64008;55.612;37.698;2022-12-31T00:50:09;15.52;;;5.82;;
75427;SDS011;64008;55.612;37.698;2022-12-31T00:52:35;17.90;;;5.75;;
75427;SDS011;64008;55.612;37.698;2022-12-31T00:55:00;15.45;;;7.00;;
75427;SDS011;64008;55.612;37.698;2022-12-31T00:57:26;17.00;;;5.75;;
75427;SDS011;64008;55.612;37.698;2022-12-31T00:59:51;16.50;;;6.28;;
75427;SDS011;64008;55.612;37.698;2022-12-31T01:02:17;15.93;;;6.10;;
75427;SDS011;64008;55.612;37.698;2022-12-31T01:04:42;16.92;;;5.97;;
75427;SDS011;64008;55.612;37.698;2022-12-31T01:07:08;15.77;;;6.35;;
75427;SDS011;64008;55.612;37.698;2022-12-31T01:09:34;14.93;;;6.45;;
75427;SDS011;64008;55.612;37.698;2022-12-31T01:12:00;14.95;;;6.13;;
75427;SDS011;64008;55.612;37.698;2022-12-31T01:14:25;16.77;;;6.13;;
75427;SDS011;64008;55.612;37.698;2022-12-31T01:16:52;14.52;;;5.30;;
75427;SDS011;64008;55.612;37.698;2022-12-31T01:19:19;15.45;;;6.47;;
75427;SDS011;64008;55.612;37.698;2022-12-31T01:21:48;16.58;;;6.05;;
75427;SDS011;64008;55.612;37.698;2022-12-31T01:24:14;13.73;;;6.05;;
75427;SDS011;64008;55.612;37.698;2022-12-31T01:26:40;12.88;;;5.22;;
75427;SDS011;64008;55.612;37.698;2022-12-31T01:29:06;14.23;;;5.18;;
75427;SDS011;64008;55.612;37.698;2022-12-31T01:33:59;11.02;;;4.45;;
75427;SDS011;64008;55.612;37.698;2022-12-31T01:36:26;10.85;;;4.72;;
75427;SDS011;64008;55.612;37.698;2022-12-31T01:38:54;11.23;;;4.32;;
75427;SDS011;64008;55.612;37.698;2022-12-31T01:41:25;10.07;;;4.22;;
75427;SDS011;64008;55.612;37.698;2022-12-31T01:43:57;10.95;;;4.13;;
75427;SDS011;64008;55.612;37.698;2022-12-31T01:46:26;11.77;;;4.40;;
75427;SDS011;64008;55.612;37.698;2022-12-31T01:49:25;9.48;;;4.30;;
75427;SDS011;64008;55.612;37.698;2022-12-31T01:51:53;10.82;;;4.65;;
75427;SDS011;64008;55.612;37.698;2022-12-31T01:54:22;11.65;;;4.47;;
75427;SDS011;64008;55.612;37.698;2022-12-31T01:56:50;9.95;;;4.30;;
75427;SDS011;64008;55.612;37.698;2022-12-31T01:59:17;10.48;;;4.28;;
75427;SDS011;64008;55.612;37.698;2022-12-31T02:01:45;11.57;;;4.38;;
75427;SDS011;64008;55.612;37.698;2022-12-31T02:04:12;9.82;;;4.25;;
75427;SDS011;64008;55.612;37.698;2022-12-31T02:06:56;9.70;;;3.25;;
75427;SDS011;64008;55.612;37.698;2022-12-31T02:09:24;9.32;;;3.72;;
75427;SDS011;64008;55.612;37.698;2022-12-31T02:11:50;13.13;;;5.10;;
75427;SDS011;64008;55.612;37.698;2022-12-31T02:14:23;8.52;;;4.28;;
75427;SDS011;64008;55.612;37.698;2022-12-31T02:22:24;11.65;;;3.88;;
75427;SDS011;64008;55.612;37.698;2022-12-31T02:38:28;10.57;;;4.00;;
75427;SDS011;64008;55.612;37.698;2022-12-31T02:40:57;9.90;;;3.92;;
75427;SDS011;64008;55.612;37.698;2022-12-31T02:43:24;10.90;;;4.03;;
75427;SDS011;64008;55.612;37.698;2022-12-31T02:46:12;11.45;;;3.72;;
75427;SDS011;64008;55.612;37.698;2022-12-31T02:48:51;9.93;;;4.13;;
75427;SDS011;64008;55.612;37.698;2022-12-31T02:59:32;8.18;;;3.78;;
75427;SDS011;64008;55.612;37.698;2022-12-31T03:02:40;10.40;;;4.20;;
75427;SDS011;64008;55.612;37.698;2022-12-31T03:05:08;10.38;;;3.85;;
75427;SDS011;64008;55.612;37.698;2022-12-31T03:07:36;9.90;;;4.03;;
75427;SDS011;64008;55.612;37.698;2022-12-31T03:10:04;10.23;;;4.38;;
75427;SDS011;64008;55.612;37.698;2022-12-31T03:12:30;9.43;;;3.97;;
75427;SDS011;64008;55.612;37.698;2022-12-31T03:15:11;9.65;;;3.70;;
75427;SDS011;64008;55.612;37.698;2022-12-31T03:20:31;8.48;;;3.55;;
75427;SDS011;64008;55.612;37.698;2022-12-31T03:23:37;13.55;;;4.80;;
75427;SDS011;64008;55.612;37.698;2022-12-31T03:26:08;9.43;;;4.40;;
75427;SDS011;64008;55.612;37.698;2022-12-31T03:28:35;9.75;;;4.50;;
75427;SDS011;64008;55.612;37.698;2022-12-31T03:31:02;12.80;;;5.32;;
75427;SDS011;64008;55.612;37.698;2022-12-31T03:33:35;15.55;;;6.07;;
75427;SDS011;64008;55.612;37.698;2022-12-31T03:36:03;17.77;;;6.68;;
75427;SDS011;64008;55.612;37.698;2022-12-31T03:38:30;14.93;;;6.07;;
75427;SDS011;64008;55.612;37.698;2022-12-31T03:40:55;11.95;;;5.10;;
75427;SDS011;64008;55.612;37.698;2022-12-31T03:43:21;11.23;;;4.47;;
75427;SDS011;64008;55.612;37.698;2022-12-31T03:45:50;12.98;;;4.57;;
75427;SDS011;64008;55.612;37.698;2022-12-31T03:48:17;14.73;;;5.18;;
75427;SDS011;64008;55.612;37.698;2022-12-31T03:50:44;13.50;;;5.15;;
75427;SDS011;64008;55.612;37.698;2022-12-31T03:53:09;12.85;;;5.90;;
75427;SDS011;64008;55.612;37.698;2022-12-31T03:55:35;11.73;;;4.50;;
75427;SDS011;64008;55.612;37.698;2022-12-31T03:58:01;11.45;;;5.10;;
75427;SDS011;64008;55.612;37.698;2022-12-31T04:00:27;14.35;;;6.05;;
75427;SDS011;64008;55.612;37.698;2022-12-31T04:02:52;10.70;;;5.30;;
75427;SDS011;64008;55.612;37.698;2022-12-31T04:05:18;11.77;;;4.22;;
75427;SDS011;64008;55.612;37.698;2022-12-31T04:07:44;16.27;;;6.53;;
75427;SDS011;64008;55.612;37.698;2022-12-31T04:10:11;19.25;;;7.50;;
75427;SDS011;64008;55.612;37.698;2022-12-31T04:12:38;17.10;;;6.82;;
75427;SDS011;64008;55.612;37.698;2022-12-31T04:15:05;23.73;;;8.85;;
75427;SDS011;64008;55.612;37.698;2022-12-31T04:17:32;9.68;;;3.28;;
75427;SDS011;64008;55.612;37.698;2022-12-31T04:19:57;12.20;;;4.80;;
75427;SDS011;64008;55.612;37.698;2022-12-31T04:22:23;14.05;;;6.35;;
75427;SDS011;64008;55.612;37.698;2022-12-31T04:24:48;20.50;;;7.45;;
75427;SDS011;64008;55.612;37.698;2022-12-31T04:27:14;19.23;;;7.18;;
75427;SDS011;64008;55.612;37.698;2022-12-31T04:29:40;20.30;;;7.95;;
75427;SDS011;64008;55.612;37.698;2022-12-31T04:32:06;20.80;;;8.30;;
75427;SDS011;64008;55.612;37.698;2022-12-31T04:34:32;18.45;;;6.85;;
75427;SDS011;64008;55.612;37.698;2022-12-31T04:36:58;12.07;;;5.05;;
75427;SDS011;64008;55.612;37.698;2022-12-31T04:39:24;15.43;;;6.47;;
75427;SDS011;64008;55.612;37.698;2022-12-31T04:41:50;14.75;;;5.88;;
75427;SDS011;64008;55.612;37.698;2022-12-31T04:44:16;14.43;;;5.55;;
75427;SDS011;64008;55.612;37.698;2022-12-31T04:46:41;15.45;;;5.93;;
75427;SDS011;64008;55.612;37.698;2022-12-31T04:49:07;17.10;;;7.20;;
75427;SDS011;64008;55.612;37.698;2022-12-31T04:51:33;18.75;;;6.13;;
75427;SDS011;64008;55.612;37.698;2022-12-31T04:53:59;12.00;;;5.70;;
75427;SDS011;64008;55.612;37.698;2022-12-31T04:56:25;18.48;;;6.68;;
75427;SDS011;64008;55.612;37.698;2022-12-31T04:58:51;14.55;;;5.90;;
75427;SDS011;64008;55.612;37.698;2022-12-31T05:01:17;15.18;;;6.38;;
75427;SDS011;64008;55.612;37.698;2022-12-31T05:03:44;7.57;;;3.53;;
75427;SDS011;64008;55.612;37.698;2022-12-31T05:06:11;17.67;;;7.18;;
75427;SDS011;64008;55.612;37.698;2022-12-31T05:08:42;17.58;;;6.95;;
75427;SDS011;64008;55.612;37.698;2022-12-31T05:11:07;17.85;;;7.13;;
75427;SDS011;64008;55.612;37.698;2022-12-31T05:13:33;14.20;;;4.85;;
75427;SDS011;64008;55.612;37.698;2022-12-31T05:16:00;18.08;;;7.20;;
75427;SDS011;64008;55.612;37.698;2022-12-31T05:18:26;15.38;;;6.90;;
75427;SDS011;64008;55.612;37.698;2022-12-31T05:20:52;22.10;;;10.32;;
75427;SDS011;64008;55.612;37.698;2022-12-31T05:23:17;21.48;;;8.38;;
75427;SDS011;64008;55.612;37.698;2022-12-31T05:25:43;18.55;;;7.05;;
75427;SDS011;64008;55.612;37.698;2022-12-31T05:28:10;17.95;;;7.28;;
75427;SDS011;64008;55.612;37.698;2022-12-31T05:30:36;20.75;;;8.27;;
75427;SDS011;64008;55.612;37.698;2022-12-31T05:33:02;15.73;;;6.68;;
75427;SDS011;64008;55.612;37.698;2022-12-31T05:35:28;16.65;;;6.85;;
75427;SDS011;64008;55.612;37.698;2022-12-31T05:37:54;18.42;;;8.27;;
75427;SDS011;64008;55.612;37.698;2022-12-31T05:40:19;14.32;;;5.70;;
75427;SDS011;64008;55.612;37.698;2022-12-31T05:42:45;11.82;;;5.53;;
75427;SDS011;64008;55.612;37.698;2022-12-31T05:45:10;21.27;;;7.32;;
75427;SDS011;64008;55.612;37.698;2022-12-31T05:47:39;24.08;;;11.05;;
75427;SDS011;64008;55.612;37.698;2022-12-31T05:50:09;19.80;;;7.57;;
75427;SDS011;64008;55.612;37.698;2022-12-31T05:52:36;15.63;;;5.50;;
75427;SDS011;64008;55.612;37.698;2022-12-31T05:55:02;14.15;;;5.78;;
75427;SDS011;64008;55.612;37.698;2022-12-31T05:57:28;21.02;;;8.70;;
75427;SDS011;64008;55.612;37.698;2022-12-31T05:59:53;24.95;;;8.60;;
75427;SDS011;64008;55.612;37.698;2022-12-31T06:02:19;19.83;;;8.88;;
75427;SDS011;64008;55.612;37.698;2022-12-31T06:04:45;9.07;;;3.90;;
75427;SDS011;64008;55.612;37.698;2022-12-31T06:07:11;22.33;;;8.07;;
75427;SDS011;64008;55.612;37.698;2022-12-31T06:09:37;16.05;;;6.43;;
75427;SDS011;64008;55.612;37.698;2022-12-31T06:12:03;21.20;;;8.25;;
75427;SDS011;64008;55.612;37.698;2022-12-31T06:14:29;13.38;;;5.63;;
75427;SDS011;64008;55.612;37.698;2022-12-31T06:16:55;14.70;;;5.10;;
75427;SDS011;64008;55.612;37.698;2022-12-31T06:19:20;18.42;;;7.63;;
75427;SDS011;64008;55.612;37.698;2022-12-31T06:21:46;19.90;;;8.38;;
75427;SDS011;64008;55.612;37.698;2022-12-31T06:24:11;21.15;;;8.50;;
75427;SDS011;64008;55.612;37.698;2022-12-31T06:26:37;17.58;;;7.25;;
75427;SDS011;64008;55.612;37.698;2022-12-31T06:29:02;13.50;;;5.47;;
75427;SDS011;64008;55.612;37.698;2022-12-31T06:31:28;18.58;;;6.85;;
75427;SDS011;64008;55.612;37.698;2022-12-31T06:33:54;14.13;;;5.30;;
75427;SDS011;64008;55.612;37.698;2022-12-31T06:36:19;11.30;;;4.85;;
75427;SDS011;64008;55.612;37.698;2022-12-31T06:38:46;11.60;;;4.47;;
75427;SDS011;64008;55.612;37.698;2022-12-31T06:41:13;7.60;;;2.85;;
75427;SDS011;64008;55.612;37.698;2022-12-31T06:43:40;13.57;;;4.93;;
75427;SDS011;64008;55.612;37.698;2022-12-31T06:46:07;18.63;;;7.45;;
75427;SDS011;64008;55.612;37.698;2022-12-31T06:48:35;15.50;;;6.05;;
75427;SDS011;64008;55.612;37.698;2022-12-31T06:51:04;12.68;;;5.38;;
75427;SDS011;64008;55.612;37.698;2022-12-31T06:53:32;5.22;;;2.60;;
75427;SDS011;64008;55.612;37.698;2022-12-31T06:56:03;13.90;;;5.68;;
75427;SDS011;64008;55.612;37.698;2022-12-31T06:58:29;10.65;;;3.80;;
75427;SDS011;64008;55.612;37.698;2022-12-31T07:04:43;13.55;;;5.45;;
75427;SDS011;64008;55.612;37.698;2022-12-31T07:20:39;14.68;;;5.70;;
75427;SDS011;64008;55.612;37.698;2022-12-31T07:23:06;18.70;;;7.30;;
75427;SDS011;64008;55.612;37.698;2022-12-31T07:49:20;16.35;;;5.25;;
75427;SDS011;64008;55.612;37.698;2022-12-31T07:51:46;12.13;;;4.25;;
75427;SDS011;64008;55.612;37.698;2022-12-31T07:54:12;10.73;;;4.20;;
75427;SDS011;64008;55.612;37.698;2022-12-31T07:56:37;15.18;;;4.95;;
75427;SDS011;64008;55.612;37.698;2022-12-31T08:12:07;12.73;;;5.00;;
75427;SDS011;64008;55.612;37.698;2022-12-31T08:14:33;32.47;;;10.95;;
75427;SDS011;64008;55.612;37.698;2022-12-31T08:17:08;14.13;;;5.28;;
75427;SDS011;64008;55.612;37.698;2022-12-31T08:19:38;28.02;;;8.63;;
75427;SDS011;64008;55.612;37.698;2022-12-31T08:33:38;28.73;;;8.85;;
75427;SDS011;64008;55.612;37.698;2022-12-31T08:35:59;32.35;;;8.85;;
75427;SDS011;64008;55.612;37.698;2022-12-31T08:49:17;40.00;;;13.00;;
75427;SDS011;64008;55.612;37.698;2022-12-31T08:51:42;23.13;;;7.28;;
75427;SDS011;64008;55.612;37.698;2022-12-31T08:54:09;39.58;;;13.00;;
75427;SDS011;64008;55.612;37.698;2022-12-31T08:56:41;33.38;;;10.35;;
75427;SDS011;64008;55.612;37.698;2022-12-31T09:06:55;18.85;;;5.68;;
75427;SDS011;64008;55.612;37.698;2022-12-31T09:09:35;24.27;;;7.78;;
75427;SDS011;64008;55.612;37.698;2022-12-31T09:12:17;34.35;;;11.35;;
75427;SDS011;64008;55.612;37.698;2022-12-31T09:20:25;32.63;;;8.88;;
75427;SDS011;64008;55.612;37.698;2022-12-31T09:22:53;32.15;;;10.40;;
75427;SDS011;64008;55.612;37.698;2022-12-31T09:25:20;29.05;;;9.07;;
75427;SDS011;64008;55.612;37.698;2022-12-31T09:30:22;24.55;;;7.53;;
75427;SDS011;64008;55.612;37.698;2022-12-31T09:35:57;23.33;;;7.22;;
75427;SDS011;64008;55.612;37.698;2022-12-31T09:38:34;37.25;;;10.50;;
75427;SDS011;64008;55.612;37.698;2022-12-31T09:51:56;24.92;;;8.00;;
75427;SDS011;64008;55.612;37.698;2022-12-31T09:54:33;20.27;;;5.47;;
75427;SDS011;64008;55.612;37.698;2022-12-31T09:57:21;44.53;;;14.52;;
75427;SDS011;64008;55.612;37.698;2022-12-31T10:07:49;34.83;;;11.77;;
75427;SDS011;64008;55.612;37.698;2022-12-31T10:10:23;14.45;;;4.53;;
75427;SDS011;64008;55.612;37.698;2022-12-31T10:27:26;42.10;;;11.60;;
75427;SDS011;64008;55.612;37.698;2022-12-31T10:30:19;40.42;;;13.77;;
75427;SDS011;64008;55.612;37.698;2022-12-31T10:33:05;37.00;;;10.32;;
75427;SDS011;64008;55.612;37.698;2022-12-31T10:36:01;52.35;;;17.55;;
75427;SDS011;64008;55.612;37.698;2022-12-31T10:41:41;52.10;;;15.60;;
75427;SDS011;64008;55.612;37.698;2022-12-31T10:47:27;38.63;;;11.48;;
75427;SDS011;64008;55.612;37.698;2022-12-31T10:58:51;46.42;;;12.43;;
75427;SDS011;64008;55.612;37.698;2022-12-31T11:10:04;36.08;;;10.50;;
75427;SDS011;64008;55.612;37.698;2022-12-31T11:18:36;34.00;;;11.30;;
75427;SDS011;64008;55.612;37.698;2022-12-31T11:29:56;14.57;;;4.47;;
75427;SDS011;64008;55.612;37.698;2022-12-31T11:38:51;13.77;;;3.47;;
75427;SDS011;64008;55.612;37.698;2022-12-31T11:41:30;12.05;;;4.07;;
75427;SDS011;64008;55.612;37.698;2022-12-31T11:53:05;22.90;;;7.57;;
75427;SDS011;64008;55.612;37.698;2022-12-31T11:58:33;13.43;;;5.03;;
75427;SDS011;64008;55.612;37.698;2022-12-31T12:06:11;16.88;;;6.22;;
75427;SDS011;64008;55.612;37.698;2022-12-31T12:08:39;15.25;;;5.60;;
75427;SDS011;64008;55.612;37.698;2022-12-31T12:11:06;11.13;;;4.78;;
75427;SDS011;64008;55.612;37.698;2022-12-31T12:13:41;12.82;;;4.78;;
75427;SDS011;64008;55.612;37.698;2022-12-31T12:16:07;15.23;;;4.75;;
75427;SDS011;64008;55.612;37.698;2022-12-31T12:19:16;15.40;;;6.78;;
75427;SDS011;64008;55.612;37.698;2022-12-31T12:21:29;12.93;;;5.93;;
75427;SDS011;64008;55.612;37.698;2022-12-31T12:24:13;14.63;;;5.45;;
75427;SDS011;64008;55.612;37.698;2022-12-31T12:26:46;10.57;;;5.93;;
75427;SDS011;64008;55.612;37.698;2022-12-31T12:29:22;9.25;;;4.78;;
75427;SDS011;64008;55.612;37.698;2022-12-31T12:34:26;8.32;;;3.78;;
75427;SDS011;64008;55.612;37.698;2022-12-31T12:36:56;9.13;;;4.13;;
75427;SDS011;64008;55.612;37.698;2022-12-31T12:39:29;9.18;;;4.07;;
75427;SDS011;64008;55.612;37.698;2022-12-31T12:44:40;5.55;;;2.33;;
75427;SDS011;64008;55.612;37.698;2022-12-31T12:47:07;8.32;;;2.88;;
75427;SDS011;64008;55.612;37.698;2022-12-31T12:49:40;5.82;;;2.30;;
75427;SDS011;64008;55.612;37.698;2022-12-31T12:57:50;8.15;;;3.78;;
75427;SDS011;64008;55.612;37.698;2022-12-31T13:16:36;4.38;;;1.70;;
75427;SDS011;64008;55.612;37.698;2022-12-31T13:29:45;7.45;;;3.53;;
75427;SDS011;64008;55.612;37.698;2022-12-31T13:32:16;5.38;;;1.67;;
75427;SDS011;64008;55.612;37.698;2022-12-31T13:34:47;9.88;;;3.65;;
75427;SDS011;64008;55.612;37.698;2022-12-31T13:39:54;8.68;;;3.78;;
75427;SDS011;64008;55.612;37.698;2022-12-31T13:42:42;7.57;;;3.35;;
75427;SDS011;64008;55.612;37.698;2022-12-31T13:45:20;7.32;;;3.03;;
75427;SDS011;64008;55.612;37.698;2022-12-31T13:47:56;6.90;;;3.35;;
75427;SDS011;64008;55.612;37.698;2022-12-31T13:50:36;7.63;;;2.42;;
75427;SDS011;64008;55.612;37.698;2022-12-31T13:56:06;7.35;;;2.53;;
75427;SDS011;64008;55.612;37.698;2022-12-31T14:01:17;7.70;;;2.80;;
75427;SDS011;64008;55.612;37.698;2022-12-31T14:06:25;5.65;;;2.40;;
75427;SDS011;64008;55.612;37.698;2022-12-31T14:08:57;6.28;;;2.70;;
75427;SDS011;64008;55.612;37.698;2022-12-31T14:22:30;2.90;;;1.15;;
75427;SDS011;64008;55.612;37.698;2022-12-31T14:25:03;8.50;;;2.20;;
75427;SDS011;64008;55.612;37.698;2022-12-31T14:27:41;4.45;;;1.60;;
75427;SDS011;64008;55.612;37.698;2022-12-31T14:30:13;5.65;;;1.98;;
75427;SDS011;64008;55.612;37.698;2022-12-31T14:38:22;6.05;;;2.47;;
75427;SDS011;64008;55.612;37.698;2022-12-31T14:54:40;7.30;;;2.88;;
75427;SDS011;64008;55.612;37.698;2022-12-31T14:57:25;10.07;;;3.42;;
75427;SDS011;64008;55.612;37.698;2022-12-31T14:59:59;8.82;;;4.07;;
75427;SDS011;64008;55.612;37.698;2022-12-31T15:02:27;8.07;;;3.60;;
75427;SDS011;64008;55.612;37.698;2022-12-31T15:05:28;9.20;;;3.95;;
75427;SDS011;64008;55.612;37.698;2022-12-31T15:10:41;8.48;;;3.83;;
75427;SDS011;64008;55.612;37.698;2022-12-31T15:19:15;8.65;;;3.72;;
75427;SDS011;64008;55.612;37.698;2022-12-31T15:24:57;9.63;;;3.92;;
75427;SDS011;64008;55.612;37.698;2022-12-31T15:29:49;9.97;;;4.73;;
75427;SDS011;64008;55.612;37.698;2022-12-31T15:32:19;8.13;;;3.25;;
75427;SDS011;64008;55.612;37.698;2022-12-31T15:34:58;11.73;;;4.45;;
75427;SDS011;64008;55.612;37.698;2022-12-31T15:37:35;6.63;;;2.88;;
75427;SDS011;64008;55.612;37.698;2022-12-31T15:40:05;11.48;;;5.75;;
75427;SDS011;64008;55.612;37.698;2022-12-31T15:45:43;12.10;;;4.72;;
75427;SDS011;64008;55.612;37.698;2022-12-31T15:48:19;11.30;;;4.97;;
75427;SDS011;64008;55.612;37.698;2022-12-31T15:50:51;13.25;;;5.82;;
75427;SDS011;64008;55.612;37.698;2022-12-31T15:53:34;10.15;;;4.38;;
75427;SDS011;64008;55.612;37.698;2022-12-31T15:56:05;15.23;;;8.57;;
75427;SDS011;64008;55.612;37.698;2022-12-31T15:58:38;16.15;;;9.45;;
75427;SDS011;64008;55.612;37.698;2022-12-31T16:04:04;11.38;;;4.57;;
75427;SDS011;64008;55.612;37.698;2022-12-31T16:06:38;9.63;;;4.63;;
75427;SDS011;64008;55.612;37.698;2022-12-31T16:12:09;12.65;;;5.90;;
75427;SDS011;64008;55.612;37.698;2022-12-31T16:14:41;18.20;;;3.17;;
75427;SDS011;64008;55.612;37.698;2022-12-31T16:19:56;11.98;;;4.53;;
75427;SDS011;64008;55.612;37.698;2022-12-31T16:22:27;14.07;;;5.32;;
75427;SDS011;64008;55.612;37.698;2022-12-31T16:24:59;12.55;;;5.30;;
75427;SDS011;64008;55.612;37.698;2022-12-31T16:27:25;15.00;;;4.80;;
75427;SDS011;64008;55.612;37.698;2022-12-31T16:30:00;11.95;;;4.57;;
75427;SDS011;64008;55.612;37.698;2022-12-31T16:32:41;6.80;;;2.20;;
75427;SDS011;64008;55.612;37.698;2022-12-31T16:37:59;17.58;;;7.10;;
75427;SDS011;64008;55.612;37.698;2022-12-31T16:40:34;9.48;;;3.75;;
75427;SDS011;64008;55.612;37.698;2022-12-31T16:43:00;8.95;;;3.55;;
75427;SDS011;64008;55.612;37.698;2022-12-31T16:45:33;13.60;;;5.75;;
75427;SDS011;64008;55.612;37.698;2022-12-31T16:48:01;12.10;;;5.28;;
75427;SDS011;64008;55.612;37.698;2022-12-31T16:50:33;7.13;;;2.80;;
75427;SDS011;64008;55.612;37.698;2022-12-31T16:53:03;9.98;;;3.83;;
75427;SDS011;64008;55.612;37.698;2022-12-31T16:55:31;6.60;;;3.45;;
75427;SDS011;64008;55.612;37.698;2022-12-31T16:58:20;7.03;;;2.78;;
75427;SDS011;64008;55.612;37.698;2022-12-31T17:00:48;4.93;;;2.00;;
75427;SDS011;64008;55.612;37.698;2022-12-31T17:03:19;12.23;;;5.10;;
75427;SDS011;64008;55.612;37.698;2022-12-31T17:06:00;9.80;;;4.28;;
75427;SDS011;64008;55.612;37.698;2022-12-31T17:08:43;7.47;;;3.65;;
75427;SDS011;64008;55.612;37.698;2022-12-31T17:16:29;4.05;;;1.67;;
75427;SDS011;64008;55.612;37.698;2022-12-31T17:18:56;6.63;;;2.85;;
75427;SDS011;64008;55.612;37.698;2022-12-31T17:21:23;7.28;;;3.05;;
75427;SDS011;64008;55.612;37.698;2022-12-31T17:23:55;8.13;;;2.80;;
75427;SDS011;64008;55.612;37.698;2022-12-31T17:26:26;6.72;;;2.20;;
75427;SDS011;64008;55.612;37.698;2022-12-31T17:28:54;5.70;;;2.28;;
75427;SDS011;64008;55.612;37.698;2022-12-31T17:34:16;3.72;;;1.10;;
75427;SDS011;64008;55.612;37.698;2022-12-31T17:42:12;6.53;;;2.33;;
75427;SDS011;64008;55.612;37.698;2022-12-31T17:44:46;6.20;;;1.45;;
75427;SDS011;64008;55.612;37.698;2022-12-31T17:47:12;6.80;;;2.15;;
75427;SDS011;64008;55.612;37.698;2022-12-31T17:49:42;8.68;;;2.42;;
75427;SDS011;64008;55.612;37.698;2022-12-31T17:52:13;9.15;;;3.03;;
75427;SDS011;64008;55.612;37.698;2022-12-31T17:54:40;13.73;;;4.28;;
75427;SDS011;64008;55.612;37.698;2022-12-31T17:57:06;6.40;;;3.17;;
75427;SDS011;64008;55.612;37.698;2022-12-31T17:59:41;7.68;;;3.03;;
75427;SDS011;64008;55.612;37.698;2022-12-31T18:02:08;7.30;;;2.75;;
75427;SDS011;64008;55.612;37.698;2022-12-31T18:04:37;7.95;;;3.42;;
75427;SDS011;64008;55.612;37.698;2022-12-31T18:07:02;11.13;;;3.47;;
75427;SDS011;64008;55.612;37.698;2022-12-31T18:09:28;5.90;;;2.47;;
75427;SDS011;64008;55.612;37.698;2022-12-31T18:11:53;9.27;;;2.72;;
75427;SDS011;64008;55.612;37.698;2022-12-31T18:14:19;8.20;;;2.22;;
75427;SDS011;64008;55.612;37.698;2022-12-31T18:16:44;9.68;;;2.78;;
75427;SDS011;64008;55.612;37.698;2022-12-31T18:19:11;7.40;;;2.25;;
75427;SDS011;64008;55.612;37.698;2022-12-31T18:21:38;8.43;;;2.60;;
75427;SDS011;64008;55.612;37.698;2022-12-31T18:24:06;9.75;;;3.53;;
75427;SDS011;64008;55.612;37.698;2022-12-31T18:26:38;11.50;;;4.78;;
75427;SDS011;64008;55.612;37.698;2022-12-31T18:29:11;5.03;;;1.83;;
75427;SDS011;64008;55.612;37.698;2022-12-31T18:31:40;5.10;;;2.33;;
75427;SDS011;64008;55.612;37.698;2022-12-31T18:34:08;14.60;;;6.00;;
75427;SDS011;64008;55.612;37.698;2022-12-31T18:36:37;11.20;;;4.63;;
75427;SDS011;64008;55.612;37.698;2022-12-31T18:39:02;3.58;;;1.55;;
75427;SDS011;64008;55.612;37.698;2022-12-31T18:41:31;8.23;;;3.85;;
75427;SDS011;64008;55.612;37.698;2022-12-31T18:44:13;29.23;;;11.85;;
75427;SDS011;64008;55.612;37.698;2022-12-31T18:46:40;14.48;;;5.95;;
75427;SDS011;64008;55.612;37.698;2022-12-31T18:49:06;15.57;;;6.22;;
75427;SDS011;64008;55.612;37.698;2022-12-31T18:51:32;14.75;;;5.53;;
75427;SDS011;64008;55.612;37.698;2022-12-31T18:53:58;14.13;;;5.70;;
75427;SDS011;64008;55.612;37.698;2022-12-31T18:56:24;11.88;;;4.43;;
75427;SDS011;64008;55.612;37.698;2022-12-31T18:58:50;7.28;;;2.83;;
75427;SDS011;64008;55.612;37.698;2022-12-31T19:01:29;11.15;;;4.75;;
75427;SDS011;64008;55.612;37.698;2022-12-31T19:03:58;12.82;;;4.65;;
75427;SDS011;64008;55.612;37.698;2022-12-31T19:06:26;13.93;;;5.85;;
75427;SDS011;64008;55.612;37.698;2022-12-31T19:08:52;11.73;;;4.47;;
75427;SDS011;64008;55.612;37.698;2022-12-31T19:11:18;22.25;;;9.15;;
75427;SDS011;64008;55.612;37.698;2022-12-31T19:13:44;11.95;;;5.32;;
75427;SDS011;64008;55.612;37.698;2022-12-31T19:16:10;20.67;;;9.27;;
75427;SDS011;64008;55.612;37.698;2022-12-31T19:18:38;23.65;;;10.40;;
75427;SDS011;64008;55.612;37.698;2022-12-31T19:21:04;14.43;;;5.85;;
75427;SDS011;64008;55.612;37.698;2022-12-31T19:23:30;19.83;;;8.60;;
75427;SDS011;64008;55.612;37.698;2022-12-31T19:25:56;11.07;;;4.25;;
75427;SDS011;64008;55.612;37.698;2022-12-31T19:28:22;15.45;;;7.40;;
75427;SDS011;64008;55.612;37.698;2022-12-31T19:30:49;8.70;;;3.05;;
75427;SDS011;64008;55.612;37.698;2022-12-31T19:33:15;14.10;;;5.85;;
75427;SDS011;64008;55.612;37.698;2022-12-31T19:35:41;7.30;;;3.25;;
75427;SDS011;64008;55.612;37.698;2022-12-31T19:38:14;12.43;;;4.65;;
75427;SDS011;64008;55.612;37.698;2022-12-31T19:40:50;11.45;;;4.95;;
75427;SDS011;64008;55.612;37.698;2022-12-31T19:43:18;10.85;;;4.22;;
75427;SDS011;64008;55.612;37.698;2022-12-31T19:45:45;11.07;;;4.65;;
75427;SDS011;64008;55.612;37.698;2022-12-31T19:48:16;14.73;;;5.03;;
75427;SDS011;64008;55.612;37.698;2022-12-31T19:50:44;12.82;;;5.05;;
75427;SDS011;64008;55.612;37.698;2022-12-31T19:53:22;13.07;;;5.65;;
75427;SDS011;64008;55.612;37.698;2022-12-31T19:55:50;20.33;;;7.35;;
75427;SDS011;64008;55.612;37.698;2022-12-31T19:58:19;15.95;;;5.63;;
75427;SDS011;64008;55.612;37.698;2022-12-31T20:00:50;12.15;;;4.95;;
75427;SDS011;64008;55.612;37.698;2022-12-31T20:03:17;13.13;;;4.82;;
75427;SDS011;64008;55.612;37.698;2022-12-31T20:05:43;7.72;;;2.80;;
75427;SDS011;64008;55.612;37.698;2022-12-31T20:08:10;12.98;;;4.45;;
75427;SDS011;64008;55.612;37.698;2022-12-31T20:10:37;8.05;;;3.53;;
75427;SDS011;64008;55.612;37.698;2022-12-31T20:13:03;11.43;;;3.50;;
75427;SDS011;64008;55.612;37.698;2022-12-31T20:15:30;13.65;;;5.10;;
75427;SDS011;64008;55.612;37.698;2022-12-31T20:17:56;11.30;;;4.75;;
75427;SDS011;64008;55.612;37.698;2022-12-31T20:20:22;19.00;;;5.93;;
75427;SDS011;64008;55.612;37.698;2022-12-31T20:22:48;18.33;;;5.25;;